createdAt,value
2023-02-19T00:00:18.766Z,9.50
2023-02-19T00:03:48.860Z,9.50
2023-02-19T00:07:16.733Z,9.50
2023-02-19T00:10:40.481Z,9.50
2023-02-19T00:14:05.772Z,9.40
2023-02-19T00:17:29.386Z,9.40
2023-02-19T00:20:52.923Z,9.40
2023-02-19T00:24:18.431Z,9.40
2023-02-19T00:27:42.122Z,9.40
2023-02-19T00:31:07.959Z,9.40
2023-02-19T00:34:32.073Z,9.40
2023-02-19T00:37:55.956Z,9.30
2023-02-19T00:41:27.497Z,9.40
2023-02-19T00:44:52.032Z,9.40
2023-02-19T00:48:17.181Z,9.30
2023-02-19T00:51:41.027Z,9.30
2023-02-19T00:55:05.743Z,9.30
2023-02-19T00:58:31.512Z,9.40
2023-02-19T01:01:56.050Z,9.40
2023-02-19T01:05:19.893Z,9.40
2023-02-19T01:08:46.844Z,9.50
2023-02-19T01:12:10.991Z,9.40
2023-02-19T01:15:36.554Z,9.40
2023-02-19T01:19:01.440Z,9.50
2023-02-19T01:22:25.092Z,9.50
2023-02-19T01:25:50.573Z,9.60
2023-02-19T01:29:14.193Z,9.60
2023-02-19T01:32:39.401Z,9.50
2023-02-19T01:36:05.086Z,9.60
2023-02-19T01:39:29.049Z,9.60
2023-02-19T01:42:55.340Z,9.60
2023-02-19T01:46:19.060Z,9.60
2023-02-19T01:49:49.498Z,9.60
2023-02-19T01:53:16.010Z,9.70
2023-02-19T01:56:42.765Z,9.70
2023-02-19T02:00:10.810Z,9.70
2023-02-19T02:03:41.399Z,9.70
2023-02-19T02:07:28.305Z,9.70
2023-02-19T02:10:51.970Z,9.70
2023-02-19T02:14:17.666Z,9.70
2023-02-19T02:17:52.459Z,9.70
2023-02-19T02:21:45.732Z,9.70
2023-02-19T02:25:47.626Z,9.70
2023-02-19T02:29:48.372Z,9.80
2023-02-19T02:33:25.830Z,9.80
2023-02-19T02:36:53.980Z,9.80
2023-02-19T02:40:19.993Z,9.80
2023-02-19T02:43:48.767Z,9.70
2023-02-19T02:47:28.528Z,9.70
2023-02-19T02:50:57.055Z,9.70
2023-02-19T02:54:43.508Z,9.80
2023-02-19T02:58:11.582Z,9.80
2023-02-19T03:02:02.455Z,9.70
2023-02-19T03:05:46.629Z,9.70
2023-02-19T03:09:16.226Z,9.70
2023-02-19T03:13:01.374Z,9.70
2023-02-19T03:16:47.458Z,9.70
2023-02-19T03:20:14.991Z,9.70
2023-02-19T03:24:00.401Z,9.70
2023-02-19T03:27:27.340Z,9.70
2023-02-19T03:30:56.336Z,9.70
2023-02-19T03:34:26.206Z,9.70
2023-02-19T03:37:59.419Z,9.70
2023-02-19T03:41:35.378Z,9.70
2023-02-19T03:45:37.427Z,9.70
2023-02-19T03:49:09.072Z,9.70
2023-02-19T03:52:42.751Z,9.70
2023-02-19T03:56:11.042Z,9.70
2023-02-19T03:59:46.454Z,9.60
2023-02-19T04:03:19.554Z,9.60
2023-02-19T04:06:47.804Z,9.60
2023-02-19T04:10:14.291Z,9.50
2023-02-19T04:13:48.653Z,9.50
2023-02-19T04:17:20.100Z,9.50
2023-02-19T04:20:49.880Z,9.50
2023-02-19T04:24:20.825Z,9.50
2023-02-19T04:27:46.927Z,9.50
2023-02-19T04:31:12.715Z,9.50
2023-02-19T04:34:38.631Z,9.50
2023-02-19T04:38:02.253Z,9.50
2023-02-19T04:41:26.440Z,9.50
2023-02-19T04:44:50.215Z,9.50
2023-02-19T04:48:14.803Z,9.50
2023-02-19T04:51:40.300Z,9.50
2023-02-19T04:55:04.769Z,9.50
2023-02-19T04:58:29.303Z,9.50
2023-02-19T05:01:55.684Z,9.50
2023-02-19T05:05:19.297Z,9.40
2023-02-19T05:08:44.202Z,9.40
2023-02-19T05:12:08.483Z,9.40
2023-02-19T05:15:32.384Z,9.40
2023-02-19T05:18:56.272Z,9.40
2023-02-19T05:22:20.315Z,9.40
2023-02-19T05:25:45.652Z,9.40
2023-02-19T05:29:11.316Z,9.40
2023-02-19T05:32:37.195Z,9.40
2023-02-19T05:36:05.180Z,9.40
2023-02-19T05:39:31.381Z,9.40
2023-02-19T05:42:56.657Z,9.30
2023-02-19T05:46:22.383Z,9.30
2023-02-19T05:49:52.116Z,9.20
2023-02-19T05:53:15.654Z,9.30
2023-02-19T05:56:43.609Z,9.20
2023-02-19T06:00:12.676Z,9.20
2023-02-19T06:03:36.333Z,9.30
2023-02-19T06:07:00.359Z,9.20
2023-02-19T06:10:28.263Z,9.20
2023-02-19T06:13:51.894Z,9.20
2023-02-19T06:17:18.220Z,9.20
2023-02-19T06:20:41.732Z,9.20
2023-02-19T06:24:07.396Z,9.20
2023-02-19T06:27:31.022Z,9.20
2023-02-19T06:30:55.367Z,9.20
2023-02-19T06:34:20.771Z,9.20
2023-02-19T06:37:47.645Z,8.70
2023-02-19T06:41:12.577Z,8.20
2023-02-19T06:44:36.515Z,7.60
2023-02-19T06:48:00.396Z,7.30
2023-02-19T06:51:33.153Z,7.20
2023-02-19T06:54:57.350Z,7.10
2023-02-19T06:58:21.416Z,7.10
2023-02-19T07:01:49.448Z,7.00
2023-02-19T07:05:12.931Z,7.00
2023-02-19T07:08:38.832Z,6.90
2023-02-19T07:12:02.440Z,6.90
2023-02-19T07:15:26.464Z,6.80
2023-02-19T07:18:50.431Z,6.70
2023-02-19T07:22:14.399Z,6.60
2023-02-19T07:25:42.696Z,6.50
2023-02-19T07:29:07.473Z,6.50
2023-02-19T07:32:31.449Z,6.30
2023-02-19T07:35:55.464Z,6.30
2023-02-19T07:39:19.428Z,6.30
2023-02-19T07:42:44.813Z,6.20
2023-02-19T07:46:10.156Z,6.30
2023-02-19T07:49:35.230Z,6.30
2023-02-19T07:52:58.930Z,6.20
2023-02-19T07:56:22.754Z,6.20
2023-02-19T07:59:47.978Z,6.20
2023-02-19T08:03:15.620Z,6.30
2023-02-19T08:06:39.193Z,6.40
2023-02-19T08:10:17.402Z,6.40
2023-02-19T08:13:46.186Z,6.40
2023-02-19T08:17:11.916Z,6.40
2023-02-19T08:20:36.503Z,6.40
2023-02-19T08:24:01.215Z,6.30
2023-02-19T08:27:28.180Z,6.20
2023-02-19T08:30:52.550Z,6.10
2023-02-19T08:34:17.997Z,6.00
2023-02-19T08:37:41.490Z,6.00
2023-02-19T08:41:07.286Z,6.00
2023-02-19T08:44:31.534Z,6.10
2023-02-19T08:48:01.856Z,6.20
2023-02-19T08:51:34.465Z,6.20
2023-02-19T08:54:58.753Z,6.00
2023-02-19T08:58:26.153Z,6.00
2023-02-19T09:01:49.722Z,6.00
2023-02-19T09:05:13.689Z,5.90
2023-02-19T09:08:38.921Z,5.70
2023-02-19T09:12:02.767Z,5.70
2023-02-19T09:15:29.506Z,5.90
2023-02-19T09:18:56.332Z,6.00
2023-02-19T09:22:20.627Z,5.90
2023-02-19T09:25:47.911Z,6.10
2023-02-19T09:29:11.703Z,6.00
2023-02-19T09:32:35.590Z,6.00
2023-02-19T09:36:01.486Z,6.10
2023-02-19T09:39:25.070Z,6.20
2023-02-19T09:42:52.782Z,5.80
2023-02-19T09:46:30.967Z,5.90
2023-02-19T09:49:57.075Z,6.00
2023-02-19T09:53:22.910Z,6.00
2023-02-19T09:56:46.645Z,5.90
2023-02-19T10:00:22.455Z,5.90
2023-02-19T10:03:48.475Z,6.00
2023-02-19T10:07:14.416Z,6.40
2023-02-19T10:10:38.782Z,6.80
2023-02-19T10:14:09.327Z,6.90
2023-02-19T10:17:35.504Z,6.90
2023-02-19T10:20:59.474Z,7.20
2023-02-19T10:24:25.714Z,7.40
2023-02-19T10:27:49.351Z,7.20
2023-02-19T10:31:20.572Z,7.00
2023-02-19T10:34:45.809Z,6.80
2023-02-19T10:38:09.797Z,6.90
2023-02-19T10:41:33.544Z,6.90
2023-02-19T10:45:01.844Z,6.90
2023-02-19T10:48:30.533Z,6.70
2023-02-19T10:51:57.334Z,6.80
2023-02-19T10:55:28.902Z,7.30
2023-02-19T10:58:52.889Z,8.00
2023-02-19T11:02:18.962Z,8.50
2023-02-19T11:05:56.711Z,9.20
2023-02-19T11:09:29.827Z,9.20
2023-02-19T11:12:55.642Z,9.40
2023-02-19T11:16:19.310Z,9.20
2023-02-19T11:19:46.047Z,8.80
2023-02-19T11:23:16.465Z,9.00
2023-02-19T11:26:41.615Z,9.40
2023-02-19T11:30:35.869Z,9.80
2023-02-19T11:34:01.341Z,9.80
2023-02-19T11:37:24.984Z,9.60
2023-02-19T11:40:55.273Z,9.80
2023-02-19T11:44:32.734Z,9.90
2023-02-19T11:48:25.035Z,9.50
2023-02-19T11:52:09.386Z,9.10
2023-02-19T11:55:47.051Z,8.80
2023-02-19T11:59:18.147Z,8.50
2023-02-19T12:03:08.030Z,8.40
2023-02-19T12:06:39.097Z,8.10
2023-02-19T12:10:13.128Z,8.20
2023-02-19T12:13:53.730Z,8.30
2023-02-19T12:17:31.795Z,8.60
2023-02-19T12:21:11.943Z,8.80
2023-02-19T12:24:57.165Z,8.90
2023-02-19T12:28:53.537Z,9.00
2023-02-19T12:32:44.074Z,9.00
2023-02-19T12:36:17.920Z,8.70
2023-02-19T12:39:48.728Z,8.40
2023-02-19T12:43:17.859Z,8.20
2023-02-19T12:46:44.856Z,8.30
2023-02-19T12:50:19.288Z,8.40
2023-02-19T12:53:49.535Z,8.80
2023-02-19T12:57:16.543Z,9.20
2023-02-19T13:00:45.117Z,9.10
2023-02-19T13:04:26.264Z,9.20
2023-02-19T13:07:58.921Z,9.30
2023-02-19T13:11:28.395Z,9.10
2023-02-19T13:14:58.239Z,9.10
2023-02-19T13:18:25.836Z,9.00
2023-02-19T13:22:12.603Z,9.10
2023-02-19T13:25:46.924Z,9.00
2023-02-19T13:29:24.654Z,8.90
2023-02-19T13:33:00.830Z,9.00
2023-02-19T13:36:27.371Z,9.10
2023-02-19T13:39:53.001Z,8.90
2023-02-19T13:43:26.108Z,8.60
2023-02-19T13:46:51.998Z,8.70
2023-02-19T13:50:21.578Z,8.70
2023-02-19T13:53:59.484Z,8.50
2023-02-19T13:57:29.110Z,8.60
2023-02-19T14:00:53.780Z,8.60
2023-02-19T14:04:21.648Z,8.60
2023-02-19T14:08:03.930Z,8.70
2023-02-19T14:12:00.666Z,8.60
2023-02-19T14:15:51.126Z,8.70
2023-02-19T14:19:15.782Z,8.70
2023-02-19T14:23:15.981Z,8.80
2023-02-19T14:26:40.922Z,8.70
2023-02-19T14:30:05.559Z,8.70
2023-02-19T14:33:31.406Z,8.80
2023-02-19T14:37:00.745Z,8.80
2023-02-19T14:40:41.469Z,8.90
2023-02-19T14:44:07.614Z,9.00
2023-02-19T14:47:34.918Z,9.00
2023-02-19T14:51:04.173Z,8.90
2023-02-19T14:54:40.086Z,9.00
2023-02-19T14:58:11.670Z,8.90
2023-02-19T15:01:35.284Z,8.70
2023-02-19T15:05:00.178Z,8.70
2023-02-19T15:08:29.328Z,8.50
2023-02-19T15:11:54.339Z,8.60
2023-02-19T15:15:23.695Z,8.70
2023-02-19T15:18:48.039Z,8.60
2023-02-19T15:22:15.595Z,8.60
2023-02-19T15:25:40.382Z,8.60
2023-02-19T15:29:10.128Z,8.60
2023-02-19T15:32:35.119Z,8.70
2023-02-19T15:36:01.255Z,8.70
2023-02-19T15:39:27.361Z,8.50
2023-02-19T15:42:51.022Z,8.40
2023-02-19T15:46:20.072Z,8.40
2023-02-19T15:49:50.892Z,8.50
2023-02-19T15:53:16.981Z,8.40
2023-02-19T15:56:45.197Z,8.50
2023-02-19T16:00:16.490Z,8.50
2023-02-19T16:03:40.448Z,8.70
2023-02-19T16:07:05.354Z,8.70
2023-02-19T16:10:30.735Z,8.70
2023-02-19T16:14:14.602Z,8.70
2023-02-19T16:17:38.293Z,8.70
2023-02-19T16:21:05.188Z,8.60
2023-02-19T16:24:33.827Z,8.50
2023-02-19T16:27:58.170Z,8.50
2023-02-19T16:31:23.486Z,8.40
2023-02-19T16:34:48.269Z,8.40
2023-02-19T16:38:14.816Z,8.30
2023-02-19T16:42:02.986Z,8.40
2023-02-19T16:45:27.598Z,8.40
2023-02-19T16:48:52.028Z,8.50
2023-02-19T16:52:17.187Z,8.50
2023-02-19T16:55:40.745Z,8.50
2023-02-19T16:59:07.034Z,8.60
2023-02-19T17:02:33.342Z,8.50
2023-02-19T17:05:57.712Z,8.40
2023-02-19T17:09:21.317Z,8.40
2023-02-19T17:12:45.098Z,8.40
2023-02-19T17:16:17.896Z,8.30
2023-02-19T17:19:41.472Z,8.30
2023-02-19T17:23:05.047Z,8.30
2023-02-19T17:26:31.933Z,8.30
2023-02-19T17:29:55.430Z,8.20
2023-02-19T17:33:20.294Z,8.10
2023-02-19T17:36:45.460Z,8.10
2023-02-19T17:40:31.769Z,8.10
2023-02-19T17:43:56.769Z,7.90
2023-02-19T17:47:21.043Z,8.00
2023-02-19T17:50:45.906Z,8.00
2023-02-19T17:54:09.533Z,7.90
2023-02-19T17:57:33.834Z,7.90
2023-02-19T18:00:57.445Z,7.90
2023-02-19T18:04:21.122Z,7.90
2023-02-19T18:07:46.845Z,7.80
2023-02-19T18:11:10.659Z,7.80
2023-02-19T18:14:34.586Z,7.70
2023-02-19T18:17:58.820Z,7.60
2023-02-19T18:21:25.060Z,7.70
2023-02-19T18:24:52.051Z,7.80
2023-02-19T18:28:15.868Z,7.80
2023-02-19T18:31:39.814Z,7.70
2023-02-19T18:35:10.340Z,7.70
2023-02-19T18:38:41.854Z,7.70
2023-02-19T18:42:08.766Z,7.70
2023-02-19T18:45:35.211Z,7.80
2023-02-19T18:48:58.789Z,7.70
2023-02-19T18:52:24.788Z,7.70
2023-02-19T18:55:48.256Z,7.70
2023-02-19T18:59:13.939Z,7.50
2023-02-19T19:02:48.754Z,7.50
2023-02-19T19:06:13.048Z,7.60
2023-02-19T19:09:36.961Z,7.50
2023-02-19T19:13:00.508Z,7.50
2023-02-19T19:16:26.949Z,7.50
2023-02-19T19:19:50.447Z,7.40
2023-02-19T19:23:14.224Z,7.40
2023-02-19T19:26:43.842Z,7.40
2023-02-19T19:30:09.353Z,7.40
2023-02-19T19:33:34.266Z,7.50
2023-02-19T19:36:58.355Z,7.50
2023-02-19T19:40:22.143Z,7.50
2023-02-19T19:43:46.027Z,7.50
2023-02-19T19:47:09.611Z,7.50
2023-02-19T19:50:34.527Z,7.50
2023-02-19T19:53:58.327Z,7.50
2023-02-19T19:57:22.094Z,7.50
2023-02-19T20:00:45.534Z,7.50
2023-02-19T20:04:09.204Z,7.60
2023-02-19T20:07:34.088Z,7.60
2023-02-19T20:10:57.613Z,7.60
2023-02-19T20:14:22.576Z,7.60
2023-02-19T20:17:46.085Z,7.50
2023-02-19T20:21:10.927Z,7.50
2023-02-19T20:24:36.052Z,7.50
2023-02-19T20:27:59.584Z,7.50
2023-02-19T20:31:23.581Z,7.40
2023-02-19T20:34:47.219Z,7.40
2023-02-19T20:38:10.792Z,7.30
2023-02-19T20:41:35.724Z,7.40
2023-02-19T20:44:59.225Z,7.30
2023-02-19T20:48:22.822Z,7.30
2023-02-19T20:51:47.437Z,7.30
2023-02-19T20:55:11.132Z,7.30
2023-02-19T20:58:35.992Z,7.30
2023-02-19T21:01:59.812Z,7.30
2023-02-19T21:05:23.555Z,7.30
2023-02-19T21:08:47.089Z,7.30
2023-02-19T21:12:10.655Z,7.40
2023-02-19T21:15:35.715Z,7.40
2023-02-19T21:18:59.818Z,7.40
2023-02-19T21:22:23.396Z,7.30
2023-02-19T21:25:47.171Z,7.40
2023-02-19T21:29:14.947Z,7.20
2023-02-19T21:32:39.904Z,7.20
2023-02-19T21:36:03.921Z,7.20
2023-02-19T21:39:31.067Z,7.20
2023-02-19T21:42:55.065Z,7.20
2023-02-19T21:46:19.714Z,7.10
2023-02-19T21:49:45.542Z,7.10
2023-02-19T21:53:09.213Z,7.10
2023-02-19T21:56:36.358Z,7.10
2023-02-19T22:00:00.892Z,7.20
2023-02-19T22:03:26.413Z,7.20
2023-02-19T22:06:51.790Z,7.20
2023-02-19T22:10:16.857Z,7.20
2023-02-19T22:13:40.600Z,7.20
2023-02-19T22:17:04.127Z,7.30
2023-02-19T22:20:28.249Z,7.30
2023-02-19T22:23:57.987Z,7.30
2023-02-19T22:27:24.403Z,7.30
2023-02-19T22:30:49.235Z,7.30
2023-02-19T22:34:13.516Z,7.30
2023-02-19T22:37:39.655Z,7.30
2023-02-19T22:41:06.870Z,7.30
2023-02-19T22:44:30.528Z,7.20
2023-02-19T22:47:55.994Z,7.10
2023-02-19T22:51:21.241Z,7.10
2023-02-19T22:54:46.611Z,7.10
2023-02-19T22:58:12.080Z,7.10
2023-02-19T23:01:35.682Z,7.00
2023-02-19T23:05:02.682Z,7.00
2023-02-19T23:08:26.503Z,7.00
2023-02-19T23:11:51.044Z,7.00
2023-02-19T23:15:18.064Z,7.00
2023-02-19T23:18:42.517Z,6.90
2023-02-19T23:22:08.915Z,6.80
2023-02-19T23:25:34.854Z,6.80
2023-02-19T23:29:02.264Z,6.80
2023-02-19T23:32:27.282Z,6.60
2023-02-19T23:35:53.146Z,6.60
2023-02-19T23:39:20.669Z,6.50
2023-02-19T23:42:44.555Z,6.50
2023-02-19T23:46:08.903Z,6.50
2023-02-19T23:49:37.632Z,6.60
2023-02-19T23:53:03.967Z,6.50
2023-02-19T23:56:29.692Z,6.60
2023-02-19T23:59:53.672Z,6.50
